Time;durP1;ratioP1;P1;durP2;ratioP2;P2;SDS_P1;SDS_P2;PMS_P1;PMS_P2;Temp;Humidity;BMP_temperature;BMP_pressure;BME280_temperature;BME280_humidity;BME280_pressure;Samples;Min_cycle;Max_cycle;Signal;HPM_P1;HPM_P2
2022/09/04 00:02:30;;;;;;;;;;;18.20;69.20;;;;;;5116900;27;20354;-71
2022/09/04 00:05:02;;;;;;;;;;;18.20;69.10;;;;;;5121981;27;19919;-72
2022/09/04 00:07:35;;;;;;;;;;;18.20;69.10;;;;;;5126081;27;19918;-70
2022/09/04 00:10:10;;;;;;;;;;;18.10;69.20;;;;;;5123647;27;20313;-71
2022/09/04 00:12:40;;;;;;;;;;;18.10;69.30;;;;;;5124418;28;20338;-70
2022/09/04 00:15:12;;;;;;;;;;;18.10;69.40;;;;;;5124047;27;20095;-72
2022/09/04 00:17:41;;;;;;;;;;;18.00;69.40;;;;;;5124026;27;20180;-71
2022/09/04 00:20:12;;;;;;;;;;;17.90;69.60;;;;;;5122847;27;20266;-70
2022/09/04 00:22:44;;;;;;;;;;;17.90;69.70;;;;;;5119433;27;19927;-70
2022/09/04 00:25:13;;;;;;;;;;;17.90;69.70;;;;;;5123494;27;19926;-70
2022/09/04 00:27:43;;;;;;;;;;;17.90;69.80;;;;;;5123209;27;19923;-70
2022/09/04 00:30:14;;;;;;;;;;;17.90;69.90;;;;;;5142117;27;19926;-69
2022/09/04 00:32:44;;;;;;;;;;;17.80;69.90;;;;;;5118138;27;19919;-70
2022/09/04 00:35:14;;;;;;;;;;;17.80;70.00;;;;;;5121894;27;20392;-71
2022/09/04 00:37:44;;;;;;;;;;;17.70;70.10;;;;;;5126446;27;20022;-71
2022/09/04 00:40:16;;;;;;;;;;;17.70;70.20;;;;;;5126057;27;19938;-70
2022/09/04 00:42:52;;;;;;;;;;;17.70;70.20;;;;;;5121431;27;19927;-70
2022/09/04 00:45:26;;;;;;;;;;;17.70;70.20;;;;;;5125843;27;19919;-71
2022/09/04 00:48:01;;;;;;;;;;;17.60;70.30;;;;;;5128424;27;19969;-72
2022/09/04 00:50:35;;;;;;;;;;;17.60;70.50;;;;;;5128453;27;19920;-71
2022/09/04 00:53:08;;;;;;;;;;;17.60;70.30;;;;;;5126597;27;20214;-69
2022/09/04 00:55:46;;;;;;;;;;;17.50;70.20;;;;;;5129247;27;19919;-71
2022/09/04 00:58:20;;;;;;;;;;;17.50;70.20;;;;;;5129665;27;19976;-71
2022/09/04 01:00:54;;;;;;;;;;;17.50;70.30;;;;;;5122696;27;19931;-71
2022/09/04 01:03:35;;;;;;;;;;;17.50;70.20;;;;;;5127043;27;19955;-71
2022/09/04 01:06:06;;;;;;;;;;;17.40;70.20;;;;;;5126233;27;19964;-72
2022/09/04 01:08:39;;;;;;;;;;;17.40;70.20;;;;;;5124562;27;19930;-71
2022/09/04 01:11:10;;;;;;;;;;;17.40;70.20;;;;;;5125011;27;20399;-70
2022/09/04 01:13:41;;;;;;;;;;;17.40;70.20;;;;;;5123980;27;19927;-71
2022/09/04 01:16:13;;;;;;;;;;;17.30;70.20;;;;;;5123887;27;19919;-71
2022/09/04 01:18:44;;;;;;;;;;;17.30;70.30;;;;;;5127305;27;19942;-71
2022/09/04 01:21:18;;;;;;;;;;;17.20;70.40;;;;;;5130049;27;19920;-70
2022/09/04 01:23:56;;;;;;;;;;;17.20;70.50;;;;;;5128467;27;20378;-71
2022/09/04 01:26:27;;;;;;;;;;;17.10;70.70;;;;;;5132004;27;20455;-71
2022/09/04 01:29:01;;;;;;;;;;;17.10;71.00;;;;;;5123315;27;19919;-71
2022/09/04 01:31:40;;;;;;;;;;;17.10;70.90;;;;;;5124699;27;19927;-71
2022/09/04 01:34:15;;;;;;;;;;;17.00;71.00;;;;;;5126529;27;19919;-71
2022/09/04 01:36:45;;;;;;;;;;;17.10;70.80;;;;;;5122151;27;19931;-70
2022/09/04 01:39:12;;;;;;;;;;;17.10;70.70;;;;;;5122880;27;19930;-70
2022/09/04 01:41:43;;;;;;;;;;;17.10;70.50;;;;;;5123481;27;19946;-70
2022/09/04 01:44:10;;;;;;;;;;;17.10;70.30;;;;;;5122769;27;19919;-72
2022/09/04 01:46:40;;;;;;;;;;;17.00;70.40;;;;;;5129699;27;20014;-71
2022/09/04 01:49:10;;;;;;;;;;;17.00;70.50;;;;;;5122210;27;19935;-72
2022/09/04 01:51:39;;;;;;;;;;;16.90;70.70;;;;;;5128363;27;19927;-71
2022/09/04 01:54:12;;;;;;;;;;;16.90;70.70;;;;;;5129026;27;19920;-71
2022/09/04 01:56:44;;;;;;;;;;;16.90;70.60;;;;;;5125567;27;19962;-71
2022/09/04 01:59:15;;;;;;;;;;;16.90;70.40;;;;;;5129328;27;19926;-71
2022/09/04 02:01:46;;;;;;;;;;;16.80;70.40;;;;;;5119711;27;19926;-71
2022/09/04 02:04:17;;;;;;;;;;;16.80;70.40;;;;;;5127150;27;20285;-71
2022/09/04 02:06:46;;;;;;;;;;;16.80;70.40;;;;;;5122562;27;19956;-71
2022/09/04 02:09:20;;;;;;;;;;;16.80;70.40;;;;;;5126211;27;20254;-69
2022/09/04 02:11:52;;;;;;;;;;;16.80;70.30;;;;;;5126820;27;19938;-71
2022/09/04 02:14:26;;;;;;;;;;;16.80;70.30;;;;;;5124538;27;19927;-70
2022/09/04 02:16:59;;;;;;;;;;;16.80;70.30;;;;;;5126589;27;20022;-71
2022/09/04 02:19:35;;;;;;;;;;;16.70;70.50;;;;;;5126471;27;19987;-71
2022/09/04 02:22:05;;;;;;;;;;;16.70;70.60;;;;;;5124811;27;19919;-71
2022/09/04 02:24:35;;;;;;;;;;;16.70;70.70;;;;;;5126498;27;20013;-71
2022/09/04 02:27:05;;;;;;;;;;;16.60;70.80;;;;;;5124102;27;19931;-71
2022/09/04 02:29:39;;;;;;;;;;;16.60;70.90;;;;;;5124256;27;19939;-72
2022/09/04 02:32:10;;;;;;;;;;;16.60;70.90;;;;;;5128041;27;19930;-71
2022/09/04 02:34:40;;;;;;;;;;;16.60;71.00;;;;;;5128440;27;19929;-71
2022/09/04 02:37:09;;;;;;;;;;;16.50;71.20;;;;;;5125618;27;19919;-71
2022/09/04 02:39:43;;;;;;;;;;;16.50;71.40;;;;;;5129110;27;19919;-70
2022/09/04 02:42:18;;;;;;;;;;;16.40;71.40;;;;;;5120351;27;20380;-71
2022/09/04 02:44:49;;;;;;;;;;;16.30;71.50;;;;;;5123805;27;19920;-70
2022/09/04 02:47:21;;;;;;;;;;;16.30;71.70;;;;;;5127606;27;20013;-70
2022/09/04 02:49:54;;;;;;;;;;;16.30;71.60;;;;;;5124024;27;19933;-71
2022/09/04 02:52:32;;;;;;;;;;;16.30;71.60;;;;;;5125554;27;19919;-71
2022/09/04 02:55:07;;;;;;;;;;;16.30;71.60;;;;;;5123750;27;19933;-71
2022/09/04 02:57:43;;;;;;;;;;;16.30;71.50;;;;;;5123027;27;19928;-71
2022/09/04 03:00:14;;;;;;;;;;;16.40;71.40;;;;;;5121536;27;19919;-71
2022/09/04 03:02:43;;;;;;;;;;;16.30;71.40;;;;;;5128471;27;19919;-71
2022/09/04 03:05:17;;;;;;;;;;;16.30;71.50;;;;;;5121743;27;20285;-70
2022/09/04 03:07:46;;;;;;;;;;;16.20;71.50;;;;;;5120855;27;19927;-71
2022/09/04 03:10:16;;;;;;;;;;;16.20;71.50;;;;;;5122691;27;19968;-71
2022/09/04 03:12:46;;;;;;;;;;;16.20;71.70;;;;;;5117985;27;19927;-70
2022/09/04 03:15:17;;;;;;;;;;;16.10;71.80;;;;;;5119875;27;20164;-70
2022/09/04 03:17:47;;;;;;;;;;;16.10;71.80;;;;;;5117439;27;19927;-71
2022/09/04 03:20:17;;;;;;;;;;;16.10;71.90;;;;;;5116337;27;20043;-70
2022/09/04 03:22:47;;;;;;;;;;;16.10;71.90;;;;;;5122149;27;19934;-71
2022/09/04 03:25:26;;;;;;;;;;;16.10;71.80;;;;;;5123504;27;19923;-70
2022/09/04 03:27:54;;;;;;;;;;;16.10;71.70;;;;;;5115417;27;19926;-71
2022/09/04 03:30:21;;;;;;;;;;;16.10;71.80;;;;;;5123197;27;19970;-71
2022/09/04 03:32:51;;;;;;;;;;;16.10;72.00;;;;;;5129232;27;20010;-69
2022/09/04 03:35:21;;;;;;;;;;;16.00;72.10;;;;;;5129458;27;19930;-72
2022/09/04 03:37:57;;;;;;;;;;;16.00;72.20;;;;;;5121859;27;20358;-70
2022/09/04 03:40:33;;;;;;;;;;;16.00;72.10;;;;;;5128685;27;19924;-71
2022/09/04 03:43:10;;;;;;;;;;;15.90;72.20;;;;;;5128553;27;19926;-70
2022/09/04 03:45:42;;;;;;;;;;;16.00;72.20;;;;;;5130206;27;20280;-70
2022/09/04 03:48:16;;;;;;;;;;;15.90;72.20;;;;;;5125565;27;20353;-71
2022/09/04 03:50:47;;;;;;;;;;;15.90;72.40;;;;;;5128625;27;20277;-69
2022/09/04 03:53:17;;;;;;;;;;;15.80;72.40;;;;;;5126127;27;19919;-70
2022/09/04 03:55:49;;;;;;;;;;;15.80;72.50;;;;;;5128041;27;20457;-73
2022/09/04 03:58:23;;;;;;;;;;;15.80;72.30;;;;;;5125726;27;19926;-72
2022/09/04 04:00:55;;;;;;;;;;;15.80;72.50;;;;;;5125120;27;20008;-71
2022/09/04 04:03:37;;;;;;;;;;;15.70;72.60;;;;;;5129781;27;20293;-71
2022/09/04 04:06:13;;;;;;;;;;;15.70;72.70;;;;;;5127796;27;20400;-70
2022/09/04 04:08:49;;;;;;;;;;;15.70;72.80;;;;;;5131246;27;19925;-69
2022/09/04 04:11:28;;;;;;;;;;;15.70;72.90;;;;;;5124750;27;19924;-69
2022/09/04 04:14:02;;;;;;;;;;;15.70;73.00;;;;;;5128106;27;20017;-70
2022/09/04 04:16:39;;;;;;;;;;;15.70;73.10;;;;;;5132374;27;19927;-72
2022/09/04 04:19:27;;;;;;;;;;;15.70;73.10;;;;;;5134020;27;19966;-71
2022/09/04 04:22:00;;;;;;;;;;;15.80;72.90;;;;;;5130643;27;19927;-71
2022/09/04 04:24:46;;;;;;;;;;;15.70;73.00;;;;;;5131815;27;19919;-71
2022/09/04 04:27:24;;;;;;;;;;;15.60;73.30;;;;;;5131931;27;19950;-71
2022/09/04 05:27:01;;;;;;;;;;;15.70;72.90;;;;;;5107592;27;19929;-71
2022/09/04 05:29:35;;;;;;;;;;;15.70;72.90;;;;;;5134352;27;20011;-71
2022/09/04 05:32:10;;;;;;;;;;;15.80;72.80;;;;;;5131578;27;20443;-71
2022/09/04 05:34:52;;;;;;;;;;;15.80;72.70;;;;;;5126032;27;19920;-70
2022/09/04 05:37:23;;;;;;;;;;;15.90;72.80;;;;;;5118689;27;20417;-70
2022/09/04 05:39:57;;;;;;;;;;;15.90;72.80;;;;;;5131656;27;20399;-71
2022/09/04 05:42:44;;;;;;;;;;;15.90;72.80;;;;;;5131884;27;19919;-70
2022/09/04 05:45:20;;;;;;;;;;;16.00;72.70;;;;;;5126025;27;20028;-71
2022/09/04 05:48:03;;;;;;;;;;;16.00;72.40;;;;;;5129855;27;19930;-70
2022/09/04 05:50:59;;;;;;;;;;;16.00;72.60;;;;;;5130909;27;19919;-71
2022/09/04 05:53:40;;;;;;;;;;;16.10;72.30;;;;;;5130426;27;19927;-71
2022/09/04 05:56:26;;;;;;;;;;;16.10;72.10;;;;;;5132519;27;19929;-69
2022/09/04 05:59:02;;;;;;;;;;;16.10;72.00;;;;;;5128690;27;19983;-70
2022/09/04 06:01:38;;;;;;;;;;;16.10;72.50;;;;;;5127392;27;19972;-69
2022/09/04 06:04:13;;;;;;;;;;;16.10;72.30;;;;;;5129421;27;19919;-68
2022/09/04 06:06:45;;;;;;;;;;;16.20;72.20;;;;;;5133637;27;20022;-70
2022/09/04 06:09:33;;;;;;;;;;;16.20;72.30;;;;;;5130007;27;19946;-69
2022/09/04 06:12:18;;;;;;;;;;;16.20;72.20;;;;;;5123199;27;19919;-67
2022/09/04 06:14:55;;;;;;;;;;;16.30;72.10;;;;;;5123916;27;19976;-70
2022/09/04 06:17:29;;;;;;;;;;;16.30;72.10;;;;;;5129848;27;19923;-71
2022/09/04 06:20:03;;;;;;;;;;;16.40;72.00;;;;;;5127410;27;19919;-71
2022/09/04 06:22:40;;;;;;;;;;;16.40;72.00;;;;;;5126486;27;20381;-71
2022/09/04 06:25:19;;;;;;;;;;;16.40;71.80;;;;;;5124775;27;19966;-71
2022/09/04 06:27:55;;;;;;;;;;;16.60;71.10;;;;;;5125121;27;20412;-71
2022/09/04 06:30:25;;;;;;;;;;;16.70;71.00;;;;;;5132615;27;19926;-69
2022/09/04 06:33:09;;;;;;;;;;;16.90;70.70;;;;;;5131976;27;20280;-71
2022/09/04 06:35:51;;;;;;;;;;;17.00;69.90;;;;;;5126802;27;19971;-71
2022/09/04 06:38:39;;;;;;;;;;;17.00;70.10;;;;;;5124399;27;19950;-70
2022/09/04 06:41:14;;;;;;;;;;;17.00;70.60;;;;;;5127995;27;19919;-70
2022/09/04 06:43:46;;;;;;;;;;;16.90;70.30;;;;;;5132926;27;19919;-71
2022/09/04 06:46:24;;;;;;;;;;;17.00;70.30;;;;;;5126545;27;19937;-71
2022/09/04 06:49:01;;;;;;;;;;;17.10;70.00;;;;;;5126251;27;19968;-70
2022/09/04 06:51:35;;;;;;;;;;;17.20;70.00;;;;;;5130443;27;20138;-69
2022/09/04 06:54:07;;;;;;;;;;;17.30;69.90;;;;;;5121514;27;19943;-71
2022/09/04 06:56:44;;;;;;;;;;;17.40;70.00;;;;;;5131345;27;19930;-71
2022/09/04 06:59:18;;;;;;;;;;;17.50;69.90;;;;;;5130986;27;19919;-71
2022/09/04 07:01:59;;;;;;;;;;;17.50;69.90;;;;;;5126454;27;20373;-72
2022/09/04 07:04:40;;;;;;;;;;;17.50;70.00;;;;;;5130922;27;19927;-71
2022/09/04 07:07:12;;;;;;;;;;;17.60;70.10;;;;;;5120576;27;19930;-70
2022/09/04 07:09:43;;;;;;;;;;;17.60;70.20;;;;;;5131082;27;19937;-71
2022/09/04 07:12:32;;;;;;;;;;;17.60;70.10;;;;;;5124369;27;20018;-71
2022/09/04 07:15:29;;;;;;;;;;;17.70;70.60;;;;;;5131183;27;19923;-71
2022/09/04 07:18:06;;;;;;;;;;;17.70;70.30;;;;;;5093382;27;19952;-71
2022/09/04 07:20:41;;;;;;;;;;;17.80;70.50;;;;;;5127419;27;19923;-71
2022/09/04 07:23:23;;;;;;;;;;;18.00;70.20;;;;;;5130062;27;19919;-71
2022/09/04 07:26:08;;;;;;;;;;;18.10;70.50;;;;;;5087926;27;1165671;-71
2022/09/04 07:28:54;;;;;;;;;;;18.10;70.20;;;;;;5127355;27;19919;-71
2022/09/04 07:31:28;;;;;;;;;;;18.10;70.10;;;;;;5131952;27;19920;-70
2022/09/04 07:34:00;;;;;;;;;;;18.20;69.90;;;;;;5126797;27;19930;-69
2022/09/04 07:36:31;;;;;;;;;;;18.40;69.80;;;;;;5128743;27;20341;-69
2022/09/04 07:39:04;;;;;;;;;;;18.50;70.00;;;;;;5132179;27;19926;-70
2022/09/04 07:41:33;;;;;;;;;;;18.60;69.50;;;;;;5127908;27;20368;-71
2022/09/04 07:44:09;;;;;;;;;;;18.70;69.30;;;;;;5128036;27;19926;-70
2022/09/04 07:46:43;;;;;;;;;;;18.90;68.90;;;;;;5121417;27;19954;-70
2022/09/04 07:49:15;;;;;;;;;;;19.00;68.90;;;;;;5130392;27;19926;-70
2022/09/04 07:51:46;;;;;;;;;;;19.10;68.50;;;;;;5130861;27;20392;-71
2022/09/04 07:54:22;;;;;;;;;;;19.30;68.20;;;;;;5125200;27;19919;-70
2022/09/04 07:57:07;;;;;;;;;;;19.40;68.10;;;;;;5124546;27;19919;-69
2022/09/04 07:59:47;;;;;;;;;;;19.60;67.50;;;;;;5130177;27;19926;-70
2022/09/04 08:02:30;;;;;;;;;;;19.60;66.90;;;;;;5127511;27;19929;-65
2022/09/04 08:05:13;;;;;;;;;;;19.70;66.70;;;;;;5126960;27;19927;-64
2022/09/04 08:07:52;;;;;;;;;;;19.70;67.40;;;;;;5126000;27;19920;-63
2022/09/04 08:10:26;;;;;;;;;;;19.70;68.10;;;;;;5125587;27;19925;-63
2022/09/04 08:13:08;;;;;;;;;;;19.70;68.30;;;;;;5129467;27;19920;-64
2022/09/04 08:15:47;;;;;;;;;;;19.70;68.00;;;;;;5127961;27;19923;-64
2022/09/04 08:18:20;;;;;;;;;;;19.80;68.30;;;;;;5126306;27;19923;-64
2022/09/04 08:20:53;;;;;;;;;;;19.80;68.50;;;;;;5129772;27;19923;-64
2022/09/04 08:23:46;;;;;;;;;;;19.90;69.00;;;;;;5129198;27;20300;-64
2022/09/04 08:26:19;;;;;;;;;;;20.10;68.80;;;;;;5124559;27;19984;-64
2022/09/04 08:28:59;;;;;;;;;;;20.30;68.90;;;;;;5128586;27;19941;-63
2022/09/04 08:31:30;;;;;;;;;;;20.50;68.50;;;;;;5128791;27;19919;-63
2022/09/04 08:34:15;;;;;;;;;;;20.80;69.20;;;;;;5127650;27;19926;-64
2022/09/04 08:36:47;;;;;;;;;;;21.00;69.10;;;;;;5128523;27;19923;-64
2022/09/04 08:39:22;;;;;;;;;;;21.30;69.20;;;;;;5128250;27;20430;-64
2022/09/04 08:42:08;;;;;;;;;;;21.40;69.00;;;;;;5131229;27;19966;-62
2022/09/04 08:45:09;;;;;;;;;;;21.50;68.40;;;;;;5131298;27;19931;-64
2022/09/04 08:47:52;;;;;;;;;;;21.70;68.30;;;;;;5124942;27;20207;-64
2022/09/04 08:50:29;;;;;;;;;;;22.00;67.50;;;;;;5128498;27;19926;-64
2022/09/04 08:53:14;;;;;;;;;;;22.10;67.00;;;;;;5128065;27;19934;-64
2022/09/04 08:55:59;;;;;;;;;;;22.10;66.80;;;;;;5127006;27;19919;-64
2022/09/04 08:58:36;;;;;;;;;;;22.20;65.80;;;;;;5130810;27;20317;-64
2022/09/04 09:01:20;;;;;;;;;;;22.40;65.80;;;;;;5127038;27;19931;-64
2022/09/04 09:04:07;;;;;;;;;;;22.60;66.20;;;;;;5127990;27;19919;-64
2022/09/04 09:06:45;;;;;;;;;;;22.60;65.50;;;;;;5130154;27;19925;-64
2022/09/04 09:09:27;;;;;;;;;;;22.60;65.20;;;;;;5124913;27;20034;-64
2022/09/04 09:12:09;;;;;;;;;;;22.80;65.60;;;;;;5130498;27;19923;-63
2022/09/04 09:14:47;;;;;;;;;;;23.00;65.10;;;;;;5129666;27;19923;-63
2022/09/04 09:17:15;;;;;;;;;;;23.00;65.10;;;;;;5129042;27;19959;-63
2022/09/04 09:19:46;;;;;;;;;;;23.10;64.90;;;;;;5131091;27;19962;-65
2022/09/04 09:22:25;;;;;;;;;;;23.20;64.60;;;;;;5129990;27;19961;-64
2022/09/04 09:25:12;;;;;;;;;;;23.30;63.20;;;;;;5123825;27;19947;-62
2022/09/04 09:27:57;;;;;;;;;;;23.40;63.60;;;;;;5124878;27;19926;-63
2022/09/04 09:30:33;;;;;;;;;;;23.60;63.50;;;;;;5135109;27;19919;-64
2022/09/04 09:33:26;;;;;;;;;;;23.60;62.50;;;;;;5133099;27;20142;-63
2022/09/04 09:36:06;;;;;;;;;;;23.80;62.40;;;;;;5095675;27;20373;-63
2022/09/04 09:38:59;;;;;;;;;;;23.90;62.30;;;;;;5133617;27;19976;-63
2022/09/04 09:41:41;;;;;;;;;;;23.90;62.60;;;;;;5129730;27;19920;-62
2022/09/04 09:44:42;;;;;;;;;;;24.10;62.40;;;;;;5130863;27;20017;-63
2022/09/04 09:47:27;;;;;;;;;;;24.20;61.80;;;;;;5127949;27;19925;-63
2022/09/04 09:50:06;;;;;;;;;;;24.30;61.10;;;;;;5129531;27;19919;-64
2022/09/04 09:52:54;;;;;;;;;;;24.30;61.30;;;;;;5131224;27;19958;-64
2022/09/04 09:55:36;;;;;;;;;;;24.40;60.90;;;;;;5112644;27;19920;-63
2022/09/04 09:58:25;;;;;;;;;;;24.50;60.50;;;;;;5124202;27;20017;-63
2022/09/04 10:01:01;;;;;;;;;;;24.50;59.70;;;;;;5129593;27;19923;-63
2022/09/04 10:07:20;;;;;;;;;;;24.60;58.80;;;;;;5122138;27;20019;-64
2022/09/04 10:10:09;;;;;;;;;;;24.70;58.80;;;;;;5095923;27;20388;-64
2022/09/04 10:12:57;;;;;;;;;;;24.80;58.90;;;;;;5133305;27;19962;-63
2022/09/04 10:15:42;;;;;;;;;;;24.90;58.20;;;;;;5130176;27;20310;-63
2022/09/04 10:18:31;;;;;;;;;;;25.00;57.40;;;;;;5129344;27;19927;-64
2022/09/04 10:21:19;;;;;;;;;;;25.10;57.50;;;;;;5132725;27;19941;-64
2022/09/04 10:24:05;;;;;;;;;;;25.10;56.80;;;;;;5125010;27;20018;-62
2022/09/04 10:26:57;;;;;;;;;;;25.20;56.60;;;;;;5130945;27;20278;-62
2022/09/04 10:29:38;;;;;;;;;;;25.30;56.20;;;;;;5127923;27;19920;-62
2022/09/04 10:32:22;;;;;;;;;;;25.30;56.00;;;;;;5128863;27;20016;-62
2022/09/04 10:35:08;;;;;;;;;;;25.30;55.90;;;;;;5135076;27;19920;-62
2022/09/04 10:37:43;;;;;;;;;;;25.50;56.00;;;;;;5137489;27;19919;-62
2022/09/04 10:40:37;;;;;;;;;;;25.60;55.50;;;;;;5123847;27;19920;-62
2022/09/04 10:43:19;;;;;;;;;;;25.60;54.50;;;;;;5129054;27;19919;-62
2022/09/04 10:45:48;;;;;;;;;;;25.80;55.10;;;;;;5131513;27;19927;-63
2022/09/04 10:48:21;;;;;;;;;;;25.90;54.40;;;;;;5131232;27;19919;-64
2022/09/04 10:51:11;;;;;;;;;;;25.90;54.10;;;;;;5132282;27;20017;-63
2022/09/04 10:53:55;;;;;;;;;;;25.80;53.30;;;;;;5132001;27;20618;-62
2022/09/04 10:56:25;;;;;;;;;;;25.90;54.20;;;;;;5128720;27;20019;-62
2022/09/04 10:59:09;;;;;;;;;;;26.00;53.90;;;;;;5125054;27;19934;-63
2022/09/04 11:01:54;;;;;;;;;;;26.00;53.20;;;;;;5122591;27;19989;-64
2022/09/04 11:04:38;;;;;;;;;;;26.00;53.40;;;;;;5130105;27;20273;-63
2022/09/04 11:07:20;;;;;;;;;;;26.10;53.30;;;;;;5130886;27;19919;-63
2022/09/04 11:10:03;;;;;;;;;;;26.10;52.90;;;;;;5115772;27;19972;-64
2022/09/04 11:12:45;;;;;;;;;;;26.30;52.40;;;;;;5131067;27;19929;-64
2022/09/04 11:15:27;;;;;;;;;;;26.30;52.60;;;;;;5126278;27;19919;-64
2022/09/04 11:18:12;;;;;;;;;;;26.30;52.20;;;;;;5129999;27;20369;-64
2022/09/04 11:21:04;;;;;;;;;;;26.40;51.90;;;;;;5069445;27;19927;-63
2022/09/04 11:23:55;;;;;;;;;;;26.40;52.30;;;;;;5124807;27;19955;-62
2022/09/04 11:26:36;;;;;;;;;;;26.50;52.00;;;;;;5126758;27;19923;-62
2022/09/04 11:29:25;;;;;;;;;;;26.60;51.80;;;;;;5131048;27;19942;-63
2022/09/04 11:32:08;;;;;;;;;;;26.60;51.60;;;;;;5103466;27;19925;-63
2022/09/04 11:34:47;;;;;;;;;;;26.60;51.90;;;;;;5120748;27;19946;-64
2022/09/04 11:37:26;;;;;;;;;;;26.80;51.80;;;;;;5123458;27;19919;-64
2022/09/04 11:40:15;;;;;;;;;;;26.80;51.00;;;;;;5132402;27;19926;-63
2022/09/04 11:42:50;;;;;;;;;;;26.70;50.90;;;;;;5096875;27;19920;-64
2022/09/04 11:45:26;;;;;;;;;;;26.70;51.10;;;;;;5129257;27;19919;-61
2022/09/04 11:48:04;;;;;;;;;;;26.60;51.30;;;;;;5130204;27;20402;-63
2022/09/04 11:50:53;;;;;;;;;;;26.70;50.90;;;;;;5131394;27;19969;-64
2022/09/04 11:53:41;;;;;;;;;;;26.70;51.30;;;;;;5128204;27;19920;-64
2022/09/04 11:56:28;;;;;;;;;;;26.90;51.40;;;;;;5098987;27;19919;-64
2022/09/04 11:59:03;;;;;;;;;;;26.90;50.80;;;;;;5125572;27;19948;-65
2022/09/04 12:01:47;;;;;;;;;;;26.90;50.40;;;;;;5124282;27;19946;-64
2022/09/04 12:04:29;;;;;;;;;;;26.80;51.00;;;;;;5127244;27;19919;-63
2022/09/04 12:07:16;;;;;;;;;;;26.70;51.20;;;;;;5137254;27;19926;-62
2022/09/04 12:10:02;;;;;;;;;;;26.60;51.40;;;;;;5108231;27;19919;-63
2022/09/04 12:12:47;;;;;;;;;;;26.60;51.00;;;;;;5129960;27;20006;-65
2022/09/04 12:15:30;;;;;;;;;;;26.60;50.90;;;;;;5126521;27;19924;-64
2022/09/04 12:18:07;;;;;;;;;;;26.60;50.50;;;;;;5127663;27;19967;-63
2022/09/04 12:20:52;;;;;;;;;;;26.60;50.70;;;;;;5127137;27;19920;-63
2022/09/04 12:23:32;;;;;;;;;;;26.70;50.40;;;;;;5131896;27;19980;-63
2022/09/04 12:26:20;;;;;;;;;;;26.80;50.40;;;;;;5130231;27;19962;-62
2022/09/04 12:29:00;;;;;;;;;;;26.90;49.80;;;;;;5126812;27;19931;-63
2022/09/04 12:31:38;;;;;;;;;;;27.00;49.60;;;;;;5129924;27;19931;-63
2022/09/04 12:34:15;;;;;;;;;;;27.00;49.30;;;;;;5129211;27;19926;-64
2022/09/04 12:37:10;;;;;;;;;;;27.00;49.50;;;;;;5135401;27;19919;-64
2022/09/04 12:40:07;;;;;;;;;;;27.00;49.50;;;;;;5123510;27;19934;-64
2022/09/04 12:42:38;;;;;;;;;;;27.00;49.20;;;;;;5133256;27;19919;-64
2022/09/04 12:45:11;;;;;;;;;;;27.00;49.50;;;;;;5132198;27;19959;-63
2022/09/04 12:47:46;;;;;;;;;;;27.00;49.70;;;;;;5127628;27;20012;-63
2022/09/04 12:50:20;;;;;;;;;;;26.90;49.70;;;;;;5129346;27;19926;-63
2022/09/04 12:52:58;;;;;;;;;;;26.70;49.80;;;;;;5133433;27;20300;-64
2022/09/04 12:55:29;;;;;;;;;;;26.60;50.20;;;;;;5130767;27;20299;-63
2022/09/04 12:58:01;;;;;;;;;;;26.60;50.10;;;;;;5131739;27;19946;-63
2022/09/04 13:00:33;;;;;;;;;;;26.70;49.70;;;;;;5132396;27;20018;-63
2022/09/04 13:03:07;;;;;;;;;;;26.70;49.70;;;;;;5137534;27;19930;-63
2022/09/04 13:05:43;;;;;;;;;;;26.60;49.90;;;;;;5132807;27;20403;-63
2022/09/04 13:08:18;;;;;;;;;;;26.50;50.20;;;;;;5129177;27;20004;-64
2022/09/04 13:10:50;;;;;;;;;;;26.50;50.20;;;;;;5140739;27;20288;-65
2022/09/04 13:13:21;;;;;;;;;;;26.50;50.20;;;;;;5126850;27;19958;-63
2022/09/04 13:15:56;;;;;;;;;;;26.60;49.70;;;;;;5134386;27;20072;-64
2022/09/04 13:18:33;;;;;;;;;;;26.60;49.80;;;;;;5130236;27;20379;-64
2022/09/04 13:21:05;;;;;;;;;;;26.60;49.60;;;;;;5132734;27;19923;-63
2022/09/04 13:23:38;;;;;;;;;;;26.70;49.70;;;;;;5131168;27;20135;-64
2022/09/04 13:26:19;;;;;;;;;;;26.60;49.80;;;;;;5127059;27;19919;-64
2022/09/04 13:28:53;;;;;;;;;;;26.60;49.80;;;;;;5135486;27;19980;-64
2022/09/04 13:31:32;;;;;;;;;;;26.70;49.40;;;;;;5128959;27;19923;-65
2022/09/04 13:34:04;;;;;;;;;;;26.70;49.80;;;;;;5125370;27;19950;-64
2022/09/04 13:36:37;;;;;;;;;;;26.70;49.40;;;;;;5132206;27;19968;-64
2022/09/04 13:39:22;;;;;;;;;;;26.70;49.30;;;;;;5130329;27;19948;-64
2022/09/04 13:41:55;;;;;;;;;;;26.60;49.20;;;;;;5123429;27;19923;-63
2022/09/04 13:44:39;;;;;;;;;;;26.60;49.20;;;;;;5130908;27;19980;-64
2022/09/04 13:47:07;;;;;;;;;;;26.60;49.30;;;;;;5128655;27;20361;-65
2022/09/04 13:49:38;;;;;;;;;;;26.80;48.90;;;;;;5129519;27;19930;-63
2022/09/04 13:52:08;;;;;;;;;;;26.80;49.30;;;;;;5123987;27;19967;-63
2022/09/04 13:54:37;;;;;;;;;;;26.80;49.00;;;;;;5133890;27;20006;-63
2022/09/04 13:57:08;;;;;;;;;;;26.80;48.80;;;;;;5129142;27;19919;-64
2022/09/04 13:59:35;;;;;;;;;;;26.90;48.70;;;;;;5129404;27;20000;-64
2022/09/04 14:02:04;;;;;;;;;;;26.90;48.60;;;;;;5118863;27;19965;-65
2022/09/04 14:08:30;;;;;;;;;;;26.80;48.60;;;;;;5124983;27;19919;-63
2022/09/04 14:11:04;;;;;;;;;;;26.80;48.50;;;;;;5128188;27;19920;-63
2022/09/04 14:13:40;;;;;;;;;;;26.90;48.40;;;;;;5127058;27;19919;-65
2022/09/04 14:16:08;;;;;;;;;;;26.80;48.50;;;;;;5127760;27;19966;-64
2022/09/04 14:18:54;;;;;;;;;;;26.70;48.70;;;;;;5125837;27;20033;-65
2022/09/04 14:21:29;;;;;;;;;;;26.80;48.10;;;;;;5130810;27;20211;-63
2022/09/04 14:24:02;;;;;;;;;;;26.80;48.10;;;;;;5127770;27;19950;-64
2022/09/04 14:26:33;;;;;;;;;;;26.80;48.50;;;;;;5128429;27;19988;-63
2022/09/04 14:29:03;;;;;;;;;;;26.80;49.00;;;;;;5132269;27;19964;-65
2022/09/04 14:31:35;;;;;;;;;;;26.90;48.10;;;;;;5128023;27;19978;-65
2022/09/04 14:34:05;;;;;;;;;;;26.90;47.90;;;;;;5129994;27;19953;-64
2022/09/04 14:36:35;;;;;;;;;;;26.90;48.00;;;;;;5128616;27;20288;-65
2022/09/04 14:39:16;;;;;;;;;;;26.90;48.10;;;;;;5128995;27;20281;-65
2022/09/04 14:41:57;;;;;;;;;;;26.80;48.10;;;;;;5131727;27;20299;-65
2022/09/04 14:44:31;;;;;;;;;;;26.80;48.00;;;;;;5133652;27;19927;-66
2022/09/04 14:47:06;;;;;;;;;;;26.80;47.90;;;;;;5128443;27;19919;-66
2022/09/04 14:49:39;;;;;;;;;;;26.80;48.30;;;;;;5129831;27;19926;-65
2022/09/04 14:52:11;;;;;;;;;;;26.80;48.30;;;;;;5123864;27;19919;-64
2022/09/04 14:54:45;;;;;;;;;;;26.70;48.50;;;;;;5129827;27;19923;-64
2022/09/04 14:57:13;;;;;;;;;;;26.70;48.40;;;;;;5123607;27;20364;-65
2022/09/04 14:59:43;;;;;;;;;;;26.70;48.20;;;;;;5127121;27;20057;-64
2022/09/04 15:02:18;;;;;;;;;;;26.60;48.60;;;;;;5128918;27;19923;-65
2022/09/04 15:04:47;;;;;;;;;;;26.60;48.80;;;;;;5131392;27;19957;-66
2022/09/04 15:07:23;;;;;;;;;;;26.60;49.10;;;;;;5130136;27;19920;-65
2022/09/04 15:09:53;;;;;;;;;;;26.60;49.00;;;;;;5127678;27;19923;-66
2022/09/04 15:12:23;;;;;;;;;;;26.60;49.30;;;;;;5123839;27;20052;-65
2022/09/04 15:14:52;;;;;;;;;;;26.60;49.20;;;;;;5122725;27;20289;-65
2022/09/04 15:17:25;;;;;;;;;;;26.60;49.20;;;;;;5126317;27;20008;-65
2022/09/04 15:19:53;;;;;;;;;;;26.60;49.20;;;;;;5127517;27;20334;-65
2022/09/04 15:22:24;;;;;;;;;;;26.60;49.20;;;;;;5132054;27;19971;-67
2022/09/04 15:24:58;;;;;;;;;;;26.70;48.90;;;;;;5136829;27;19925;-66
2022/09/04 15:27:31;;;;;;;;;;;26.70;48.60;;;;;;5125178;27;19923;-65
2022/09/04 15:30:03;;;;;;;;;;;26.70;48.40;;;;;;5131273;27;20300;-66
2022/09/04 15:32:31;;;;;;;;;;;26.70;48.30;;;;;;5126038;27;20389;-65
2022/09/04 15:35:11;;;;;;;;;;;26.70;48.00;;;;;;5123274;27;20285;-64
2022/09/04 15:37:38;;;;;;;;;;;26.80;48.10;;;;;;5129973;27;19952;-67
2022/09/04 15:40:10;;;;;;;;;;;26.80;48.00;;;;;;5131197;27;19919;-65
2022/09/04 15:42:44;;;;;;;;;;;26.70;48.20;;;;;;5121328;27;19926;-66
2022/09/04 15:45:16;;;;;;;;;;;26.70;48.40;;;;;;5122613;27;20043;-64
2022/09/04 15:48:10;;;;;;;;;;;26.80;48.60;;;;;;5126770;27;19920;-64
2022/09/04 15:50:40;;;;;;;;;;;26.70;48.80;;;;;;5080401;27;19927;-66
2022/09/04 15:53:14;;;;;;;;;;;26.70;49.00;;;;;;5129369;27;20014;-64
2022/09/04 15:55:47;;;;;;;;;;;26.70;48.90;;;;;;5131202;27;19919;-66
2022/09/04 15:58:15;;;;;;;;;;;26.60;49.10;;;;;;5122231;28;19919;-67
2022/09/04 16:01:06;;;;;;;;;;;26.60;48.90;;;;;;5123537;27;20023;-66
2022/09/04 16:03:36;;;;;;;;;;;26.60;48.90;;;;;;5126737;27;20018;-65
2022/09/04 16:06:06;;;;;;;;;;;26.60;48.90;;;;;;5129406;27;20257;-66
2022/09/04 16:08:37;;;;;;;;;;;26.60;48.90;;;;;;5130413;27;21148;-65
2022/09/04 16:11:10;;;;;;;;;;;26.60;49.10;;;;;;5131397;27;19926;-66
2022/09/04 16:13:43;;;;;;;;;;;26.60;49.40;;;;;;5135805;27;19954;-66
2022/09/04 16:20:20;;;;;;;;;;;26.60;49.10;;;;;;5124361;27;20380;-64